sensor_id;sensor_type;location;lat;lon;timestamp;P1;durP1;ratioP1;P2;durP2;ratioP2
2624;SDS011;1322;53.256;10.386;2023-04-28T00:00:28;10.33;;;5.90;;
2624;SDS011;1322;53.256;10.386;2023-04-28T00:02:54;7.50;;;5.77;;
2624;SDS011;1322;53.256;10.386;2023-04-28T00:05:20;11.60;;;5.53;;
2624;SDS011;1322;53.256;10.386;2023-04-28T00:07:49;6.53;;;5.20;;
2624;SDS011;1322;53.256;10.386;2023-04-28T00:10:15;14.03;;;6.20;;
2624;SDS011;1322;53.256;10.386;2023-04-28T00:12:41;8.70;;;5.10;;
2624;SDS011;1322;53.256;10.386;2023-04-28T00:15:07;8.37;;;6.17;;
2624;SDS011;1322;53.256;10.386;2023-04-28T00:17:33;10.60;;;6.80;;
2624;SDS011;1322;53.256;10.386;2023-04-28T00:19:59;7.73;;;5.50;;
2624;SDS011;1322;53.256;10.386;2023-04-28T00:22:25;6.73;;;5.87;;
2624;SDS011;1322;53.256;10.386;2023-04-28T00:24:51;18.13;;;5.60;;
2624;SDS011;1322;53.256;10.386;2023-04-28T00:27:17;8.00;;;5.63;;
2624;SDS011;1322;53.256;10.386;2023-04-28T00:29:44;10.93;;;5.63;;
2624;SDS011;1322;53.256;10.386;2023-04-28T00:32:11;7.60;;;5.63;;
2624;SDS011;1322;53.256;10.386;2023-04-28T00:34:37;7.40;;;5.47;;
2624;SDS011;1322;53.256;10.386;2023-04-28T00:37:03;9.50;;;5.30;;
2624;SDS011;1322;53.256;10.386;2023-04-28T00:39:29;9.17;;;5.63;;
2624;SDS011;1322;53.256;10.386;2023-04-28T00:41:55;9.97;;;5.97;;
2624;SDS011;1322;53.256;10.386;2023-04-28T00:44:21;10.40;;;4.90;;
2624;SDS011;1322;53.256;10.386;2023-04-28T00:46:47;5.97;;;5.00;;
2624;SDS011;1322;53.256;10.386;2023-04-28T00:49:14;9.63;;;5.10;;
2624;SDS011;1322;53.256;10.386;2023-04-28T00:51:40;5.13;;;4.60;;
2624;SDS011;1322;53.256;10.386;2023-04-28T00:54:06;6.10;;;5.07;;
2624;SDS011;1322;53.256;10.386;2023-04-28T00:56:33;8.40;;;6.20;;
2624;SDS011;1322;53.256;10.386;2023-04-28T00:58:59;6.80;;;5.20;;
2624;SDS011;1322;53.256;10.386;2023-04-28T01:01:25;6.53;;;5.27;;
2624;SDS011;1322;53.256;10.386;2023-04-28T01:03:51;6.43;;;5.20;;
2624;SDS011;1322;53.256;10.386;2023-04-28T01:06:17;10.13;;;5.00;;
2624;SDS011;1322;53.256;10.386;2023-04-28T01:08:46;8.43;;;5.73;;
2624;SDS011;1322;53.256;10.386;2023-04-28T01:11:12;10.07;;;5.87;;
2624;SDS011;1322;53.256;10.386;2023-04-28T01:13:39;7.30;;;5.03;;
2624;SDS011;1322;53.256;10.386;2023-04-28T01:16:07;8.13;;;4.40;;
2624;SDS011;1322;53.256;10.386;2023-04-28T01:18:33;7.43;;;4.13;;
2624;SDS011;1322;53.256;10.386;2023-04-28T01:20:59;11.93;;;4.90;;
2624;SDS011;1322;53.256;10.386;2023-04-28T01:23:25;6.20;;;4.33;;
2624;SDS011;1322;53.256;10.386;2023-04-28T01:25:51;9.77;;;4.90;;
2624;SDS011;1322;53.256;10.386;2023-04-28T01:28:17;7.40;;;4.63;;
2624;SDS011;1322;53.256;10.386;2023-04-28T01:30:43;6.70;;;4.50;;
2624;SDS011;1322;53.256;10.386;2023-04-28T01:33:09;9.00;;;5.33;;
2624;SDS011;1322;53.256;10.386;2023-04-28T01:35:35;8.10;;;4.63;;
2624;SDS011;1322;53.256;10.386;2023-04-28T01:38:01;6.40;;;4.30;;
2624;SDS011;1322;53.256;10.386;2023-04-28T01:40:28;7.87;;;5.13;;
2624;SDS011;1322;53.256;10.386;2023-04-28T01:42:54;5.83;;;4.70;;
2624;SDS011;1322;53.256;10.386;2023-04-28T01:45:20;7.13;;;4.30;;
2624;SDS011;1322;53.256;10.386;2023-04-28T01:47:46;8.10;;;4.87;;
2624;SDS011;1322;53.256;10.386;2023-04-28T01:50:12;7.30;;;4.87;;
2624;SDS011;1322;53.256;10.386;2023-04-28T01:52:38;5.47;;;3.90;;
2624;SDS011;1322;53.256;10.386;2023-04-28T01:55:04;6.53;;;3.90;;
2624;SDS011;1322;53.256;10.386;2023-04-28T01:57:30;6.37;;;4.30;;
2624;SDS011;1322;53.256;10.386;2023-04-28T01:59:59;6.17;;;4.00;;
2624;SDS011;1322;53.256;10.386;2023-04-28T02:02:24;6.97;;;4.03;;
2624;SDS011;1322;53.256;10.386;2023-04-28T02:04:50;5.97;;;4.80;;
2624;SDS011;1322;53.256;10.386;2023-04-28T02:07:16;8.03;;;3.83;;
2624;SDS011;1322;53.256;10.386;2023-04-28T02:09:42;6.07;;;4.70;;
2624;SDS011;1322;53.256;10.386;2023-04-28T02:12:08;8.40;;;4.40;;
2624;SDS011;1322;53.256;10.386;2023-04-28T02:14:34;5.43;;;4.43;;
2624;SDS011;1322;53.256;10.386;2023-04-28T02:17:00;6.63;;;4.70;;
2624;SDS011;1322;53.256;10.386;2023-04-28T02:19:29;5.10;;;4.60;;
2624;SDS011;1322;53.256;10.386;2023-04-28T02:21:55;5.73;;;4.70;;
2624;SDS011;1322;53.256;10.386;2023-04-28T02:24:21;5.90;;;4.70;;
2624;SDS011;1322;53.256;10.386;2023-04-28T02:26:47;6.30;;;5.30;;
2624;SDS011;1322;53.256;10.386;2023-04-28T02:29:13;7.63;;;4.63;;
2624;SDS011;1322;53.256;10.386;2023-04-28T02:31:39;5.70;;;4.90;;
2624;SDS011;1322;53.256;10.386;2023-04-28T02:34:05;8.10;;;4.77;;
2624;SDS011;1322;53.256;10.386;2023-04-28T02:36:31;6.20;;;4.07;;
2624;SDS011;1322;53.256;10.386;2023-04-28T02:38:57;9.43;;;4.80;;
2624;SDS011;1322;53.256;10.386;2023-04-28T02:41:23;8.23;;;4.37;;
2624;SDS011;1322;53.256;10.386;2023-04-28T02:43:50;7.07;;;4.77;;
2624;SDS011;1322;53.256;10.386;2023-04-28T02:46:16;7.40;;;4.97;;
2624;SDS011;1322;53.256;10.386;2023-04-28T02:48:42;8.40;;;4.73;;
2624;SDS011;1322;53.256;10.386;2023-04-28T02:51:08;5.07;;;4.10;;
2624;SDS011;1322;53.256;10.386;2023-04-28T02:53:34;5.63;;;3.97;;
2624;SDS011;1322;53.256;10.386;2023-04-28T02:56:00;8.60;;;4.80;;
2624;SDS011;1322;53.256;10.386;2023-04-28T02:58:28;7.20;;;3.37;;
2624;SDS011;1322;53.256;10.386;2023-04-28T03:00:54;5.23;;;4.43;;
2624;SDS011;1322;53.256;10.386;2023-04-28T03:03:20;7.60;;;4.40;;
2624;SDS011;1322;53.256;10.386;2023-04-28T03:05:46;8.67;;;5.30;;
2624;SDS011;1322;53.256;10.386;2023-04-28T03:08:12;7.17;;;4.97;;
2624;SDS011;1322;53.256;10.386;2023-04-28T03:10:40;7.70;;;4.40;;
2624;SDS011;1322;53.256;10.386;2023-04-28T03:13:06;14.40;;;4.90;;
2624;SDS011;1322;53.256;10.386;2023-04-28T03:15:32;6.40;;;4.90;;
2624;SDS011;1322;53.256;10.386;2023-04-28T03:17:58;8.60;;;4.50;;
2624;SDS011;1322;53.256;10.386;2023-04-28T03:20:24;8.43;;;4.60;;
2624;SDS011;1322;53.256;10.386;2023-04-28T03:22:50;5.93;;;5.10;;
2624;SDS011;1322;53.256;10.386;2023-04-28T03:25:16;7.80;;;4.53;;
2624;SDS011;1322;53.256;10.386;2023-04-28T03:27:42;8.43;;;4.30;;
2624;SDS011;1322;53.256;10.386;2023-04-28T03:30:08;6.80;;;5.20;;
2624;SDS011;1322;53.256;10.386;2023-04-28T03:32:34;6.60;;;4.67;;
2624;SDS011;1322;53.256;10.386;2023-04-28T03:35:00;11.33;;;5.27;;
2624;SDS011;1322;53.256;10.386;2023-04-28T03:37:26;6.20;;;4.17;;
2624;SDS011;1322;53.256;10.386;2023-04-28T03:39:53;4.80;;;4.03;;
2624;SDS011;1322;53.256;10.386;2023-04-28T03:42:19;7.53;;;4.83;;
2624;SDS011;1322;53.256;10.386;2023-04-28T03:44:45;5.77;;;4.80;;
2624;SDS011;1322;53.256;10.386;2023-04-28T03:47:11;4.60;;;4.03;;
2624;SDS011;1322;53.256;10.386;2023-04-28T03:49:37;9.53;;;4.60;;
2624;SDS011;1322;53.256;10.386;2023-04-28T03:52:03;8.40;;;4.50;;
2624;SDS011;1322;53.256;10.386;2023-04-28T03:54:29;5.30;;;4.80;;
2624;SDS011;1322;53.256;10.386;2023-04-28T03:56:55;17.30;;;5.03;;
2624;SDS011;1322;53.256;10.386;2023-04-28T03:59:22;8.13;;;4.80;;
2624;SDS011;1322;53.256;10.386;2023-04-28T04:01:48;9.77;;;5.20;;
2624;SDS011;1322;53.256;10.386;2023-04-28T04:04:14;8.77;;;5.43;;
2624;SDS011;1322;53.256;10.386;2023-04-28T04:06:40;7.93;;;4.97;;
2624;SDS011;1322;53.256;10.386;2023-04-28T04:09:06;6.43;;;4.80;;
2624;SDS011;1322;53.256;10.386;2023-04-28T04:11:32;6.53;;;5.00;;
2624;SDS011;1322;53.256;10.386;2023-04-28T04:13:58;6.90;;;4.13;;
2624;SDS011;1322;53.256;10.386;2023-04-28T04:16:27;5.97;;;4.63;;
2624;SDS011;1322;53.256;10.386;2023-04-28T04:18:53;6.70;;;4.90;;
2624;SDS011;1322;53.256;10.386;2023-04-28T04:21:19;6.77;;;4.17;;
2624;SDS011;1322;53.256;10.386;2023-04-28T04:23:45;7.27;;;4.90;;
2624;SDS011;1322;53.256;10.386;2023-04-28T04:26:11;8.87;;;4.67;;
2624;SDS011;1322;53.256;10.386;2023-04-28T04:28:37;6.93;;;5.97;;
2624;SDS011;1322;53.256;10.386;2023-04-28T04:31:03;7.07;;;5.00;;
2624;SDS011;1322;53.256;10.386;2023-04-28T04:33:30;8.07;;;4.33;;
2624;SDS011;1322;53.256;10.386;2023-04-28T04:35:56;5.90;;;4.40;;
2624;SDS011;1322;53.256;10.386;2023-04-28T04:38:22;8.03;;;5.70;;
2624;SDS011;1322;53.256;10.386;2023-04-28T04:40:48;8.53;;;4.30;;
2624;SDS011;1322;53.256;10.386;2023-04-28T04:43:14;7.60;;;4.70;;
2624;SDS011;1322;53.256;10.386;2023-04-28T04:45:40;5.40;;;3.83;;
2624;SDS011;1322;53.256;10.386;2023-04-28T04:48:06;5.00;;;4.30;;
2624;SDS011;1322;53.256;10.386;2023-04-28T04:50:32;4.40;;;3.70;;
2624;SDS011;1322;53.256;10.386;2023-04-28T04:52:58;4.23;;;3.37;;
2624;SDS011;1322;53.256;10.386;2023-04-28T04:55:24;6.20;;;3.50;;
2624;SDS011;1322;53.256;10.386;2023-04-28T04:57:50;4.27;;;3.50;;
2624;SDS011;1322;53.256;10.386;2023-04-28T05:00:16;5.13;;;3.83;;
2624;SDS011;1322;53.256;10.386;2023-04-28T05:02:42;6.87;;;3.90;;
2624;SDS011;1322;53.256;10.386;2023-04-28T05:05:09;10.67;;;4.60;;
2624;SDS011;1322;53.256;10.386;2023-04-28T05:07:35;9.40;;;4.17;;
2624;SDS011;1322;53.256;10.386;2023-04-28T05:10:01;5.67;;;3.80;;
2624;SDS011;1322;53.256;10.386;2023-04-28T05:12:27;5.60;;;3.87;;
2624;SDS011;1322;53.256;10.386;2023-04-28T05:14:53;11.50;;;4.80;;
2624;SDS011;1322;53.256;10.386;2023-04-28T05:17:19;5.10;;;3.90;;
2624;SDS011;1322;53.256;10.386;2023-04-28T05:19:45;3.33;;;3.00;;
2624;SDS011;1322;53.256;10.386;2023-04-28T05:22:11;6.77;;;3.83;;
2624;SDS011;1322;53.256;10.386;2023-04-28T05:24:37;4.80;;;3.03;;
2624;SDS011;1322;53.256;10.386;2023-04-28T05:27:03;7.53;;;3.93;;
2624;SDS011;1322;53.256;10.386;2023-04-28T05:29:29;9.80;;;4.47;;
2624;SDS011;1322;53.256;10.386;2023-04-28T05:31:55;8.70;;;3.50;;
2624;SDS011;1322;53.256;10.386;2023-04-28T05:34:21;6.33;;;3.70;;
2624;SDS011;1322;53.256;10.386;2023-04-28T05:36:47;9.30;;;3.60;;
2624;SDS011;1322;53.256;10.386;2023-04-28T05:39:13;5.97;;;3.80;;
2624;SDS011;1322;53.256;10.386;2023-04-28T05:41:39;6.77;;;3.30;;
2624;SDS011;1322;53.256;10.386;2023-04-28T05:44:05;4.87;;;2.83;;
2624;SDS011;1322;53.256;10.386;2023-04-28T05:46:31;6.97;;;3.67;;
2624;SDS011;1322;53.256;10.386;2023-04-28T05:48:57;5.43;;;2.70;;
2624;SDS011;1322;53.256;10.386;2023-04-28T05:51:23;4.80;;;2.50;;
2624;SDS011;1322;53.256;10.386;2023-04-28T05:53:51;7.23;;;3.70;;
2624;SDS011;1322;53.256;10.386;2023-04-28T05:56:17;5.20;;;2.60;;
2624;SDS011;1322;53.256;10.386;2023-04-28T05:58:43;8.30;;;2.63;;
2624;SDS011;1322;53.256;10.386;2023-04-28T06:01:09;6.93;;;3.37;;
2624;SDS011;1322;53.256;10.386;2023-04-28T06:03:35;6.60;;;3.30;;
2624;SDS011;1322;53.256;10.386;2023-04-28T06:06:02;4.27;;;3.87;;
2624;SDS011;1322;53.256;10.386;2023-04-28T06:08:28;4.70;;;2.97;;
2624;SDS011;1322;53.256;10.386;2023-04-28T06:10:54;2.83;;;2.57;;
2624;SDS011;1322;53.256;10.386;2023-04-28T06:13:19;5.40;;;2.83;;
2624;SDS011;1322;53.256;10.386;2023-04-28T06:15:46;3.07;;;2.70;;
2624;SDS011;1322;53.256;10.386;2023-04-28T06:18:11;4.20;;;2.97;;
2624;SDS011;1322;53.256;10.386;2023-04-28T06:20:40;3.93;;;2.50;;
2624;SDS011;1322;53.256;10.386;2023-04-28T06:23:06;5.50;;;3.40;;
2624;SDS011;1322;53.256;10.386;2023-04-28T06:25:33;6.70;;;3.10;;
2624;SDS011;1322;53.256;10.386;2023-04-28T06:27:59;5.40;;;3.87;;
2624;SDS011;1322;53.256;10.386;2023-04-28T06:30:25;4.27;;;2.37;;
2624;SDS011;1322;53.256;10.386;2023-04-28T06:32:51;6.20;;;3.43;;
2624;SDS011;1322;53.256;10.386;2023-04-28T06:35:17;4.77;;;2.97;;
2624;SDS011;1322;53.256;10.386;2023-04-28T06:37:43;6.53;;;3.27;;
2624;SDS011;1322;53.256;10.386;2023-04-28T06:40:09;4.80;;;2.70;;
2624;SDS011;1322;53.256;10.386;2023-04-28T06:42:38;6.23;;;3.37;;
2624;SDS011;1322;53.256;10.386;2023-04-28T06:45:05;3.63;;;2.83;;
2624;SDS011;1322;53.256;10.386;2023-04-28T06:47:31;5.20;;;3.30;;
2624;SDS011;1322;53.256;10.386;2023-04-28T06:49:57;3.57;;;3.27;;
2624;SDS011;1322;53.256;10.386;2023-04-28T06:52:23;4.33;;;3.20;;
2624;SDS011;1322;53.256;10.386;2023-04-28T06:54:52;9.80;;;4.33;;
2624;SDS011;1322;53.256;10.386;2023-04-28T06:57:18;7.87;;;3.53;;
2624;SDS011;1322;53.256;10.386;2023-04-28T06:59:45;3.37;;;2.80;;
2624;SDS011;1322;53.256;10.386;2023-04-28T07:02:11;9.80;;;3.10;;
2624;SDS011;1322;53.256;10.386;2023-04-28T07:04:37;7.40;;;3.10;;
2624;SDS011;1322;53.256;10.386;2023-04-28T07:07:03;6.60;;;3.27;;
2624;SDS011;1322;53.256;10.386;2023-04-28T07:09:35;3.47;;;3.17;;
2624;SDS011;1322;53.256;10.386;2023-04-28T07:12:01;8.70;;;4.70;;
2624;SDS011;1322;53.256;10.386;2023-04-28T07:14:28;4.40;;;3.30;;
2624;SDS011;1322;53.256;10.386;2023-04-28T07:16:54;7.23;;;3.37;;
2624;SDS011;1322;53.256;10.386;2023-04-28T07:19:20;3.87;;;2.53;;
2624;SDS011;1322;53.256;10.386;2023-04-28T07:21:46;14.63;;;3.33;;
2624;SDS011;1322;53.256;10.386;2023-04-28T07:24:12;9.27;;;3.47;;
2624;SDS011;1322;53.256;10.386;2023-04-28T07:26:38;6.60;;;4.20;;
2624;SDS011;1322;53.256;10.386;2023-04-28T07:29:04;5.10;;;3.03;;
2624;SDS011;1322;53.256;10.386;2023-04-28T07:31:30;4.90;;;3.30;;
2624;SDS011;1322;53.256;10.386;2023-04-28T07:33:56;5.80;;;3.70;;
2624;SDS011;1322;53.256;10.386;2023-04-28T07:36:22;5.07;;;3.90;;
2624;SDS011;1322;53.256;10.386;2023-04-28T07:38:48;3.30;;;3.00;;
2624;SDS011;1322;53.256;10.386;2023-04-28T07:41:15;10.67;;;4.03;;
2624;SDS011;1322;53.256;10.386;2023-04-28T07:43:41;4.80;;;3.00;;
2624;SDS011;1322;53.256;10.386;2023-04-28T07:46:07;7.17;;;3.60;;
2624;SDS011;1322;53.256;10.386;2023-04-28T07:48:34;4.90;;;3.53;;
2624;SDS011;1322;53.256;10.386;2023-04-28T07:51:00;6.53;;;4.07;;
2624;SDS011;1322;53.256;10.386;2023-04-28T07:53:26;4.27;;;3.47;;
2624;SDS011;1322;53.256;10.386;2023-04-28T07:55:53;7.03;;;3.20;;
2624;SDS011;1322;53.256;10.386;2023-04-28T07:58:18;5.67;;;3.50;;
2624;SDS011;1322;53.256;10.386;2023-04-28T08:00:45;5.93;;;3.53;;
2624;SDS011;1322;53.256;10.386;2023-04-28T08:03:11;5.50;;;3.33;;
2624;SDS011;1322;53.256;10.386;2023-04-28T08:05:37;5.40;;;3.40;;
2624;SDS011;1322;53.256;10.386;2023-04-28T08:08:03;5.27;;;3.30;;
2624;SDS011;1322;53.256;10.386;2023-04-28T08:10:29;8.87;;;3.53;;
2624;SDS011;1322;53.256;10.386;2023-04-28T08:12:56;4.47;;;2.80;;
2624;SDS011;1322;53.256;10.386;2023-04-28T08:15:21;9.10;;;4.00;;
2624;SDS011;1322;53.256;10.386;2023-04-28T08:17:48;3.53;;;3.23;;
2624;SDS011;1322;53.256;10.386;2023-04-28T08:20:13;8.70;;;4.03;;
2624;SDS011;1322;53.256;10.386;2023-04-28T08:22:43;6.20;;;3.03;;
2624;SDS011;1322;53.256;10.386;2023-04-28T08:25:09;4.97;;;3.27;;
2624;SDS011;1322;53.256;10.386;2023-04-28T08:27:35;7.63;;;3.93;;
2624;SDS011;1322;53.256;10.386;2023-04-28T08:30:02;9.53;;;3.40;;
2624;SDS011;1322;53.256;10.386;2023-04-28T08:32:28;6.70;;;3.67;;
2624;SDS011;1322;53.256;10.386;2023-04-28T08:34:54;4.40;;;3.80;;
2624;SDS011;1322;53.256;10.386;2023-04-28T08:37:20;5.20;;;3.37;;
2624;SDS011;1322;53.256;10.386;2023-04-28T08:39:46;5.07;;;3.30;;
2624;SDS011;1322;53.256;10.386;2023-04-28T08:42:12;7.00;;;3.53;;
2624;SDS011;1322;53.256;10.386;2023-04-28T08:44:39;4.80;;;3.40;;
2624;SDS011;1322;53.256;10.386;2023-04-28T08:47:11;5.97;;;3.60;;
2624;SDS011;1322;53.256;10.386;2023-04-28T08:49:38;6.47;;;4.10;;
2624;SDS011;1322;53.256;10.386;2023-04-28T08:52:12;4.20;;;3.43;;
2624;SDS011;1322;53.256;10.386;2023-04-28T08:54:41;7.13;;;4.40;;
2624;SDS011;1322;53.256;10.386;2023-04-28T08:57:08;8.20;;;4.50;;
2624;SDS011;1322;53.256;10.386;2023-04-28T08:59:38;8.50;;;3.70;;
2624;SDS011;1322;53.256;10.386;2023-04-28T09:02:06;5.73;;;3.87;;
2624;SDS011;1322;53.256;10.386;2023-04-28T09:04:34;8.23;;;4.70;;
2624;SDS011;1322;53.256;10.386;2023-04-28T09:07:00;4.30;;;3.73;;
2624;SDS011;1322;53.256;10.386;2023-04-28T09:09:27;6.97;;;3.90;;
2624;SDS011;1322;53.256;10.386;2023-04-28T09:12:00;6.70;;;4.40;;
2624;SDS011;1322;53.256;10.386;2023-04-28T09:14:30;5.90;;;3.70;;
2624;SDS011;1322;53.256;10.386;2023-04-28T09:16:57;6.10;;;4.27;;
2624;SDS011;1322;53.256;10.386;2023-04-28T09:19:24;8.07;;;4.90;;
2624;SDS011;1322;53.256;10.386;2023-04-28T09:21:58;8.17;;;5.57;;
2624;SDS011;1322;53.256;10.386;2023-04-28T09:24:28;6.23;;;4.43;;
2624;SDS011;1322;53.256;10.386;2023-04-28T09:27:02;7.03;;;3.80;;
2624;SDS011;1322;53.256;10.386;2023-04-28T09:29:29;5.03;;;4.07;;
2624;SDS011;1322;53.256;10.386;2023-04-28T09:32:12;6.23;;;4.30;;
2624;SDS011;1322;53.256;10.386;2023-04-28T09:34:48;5.87;;;4.47;;
2624;SDS011;1322;53.256;10.386;2023-04-28T09:39:45;7.27;;;4.00;;
2624;SDS011;1322;53.256;10.386;2023-04-28T09:44:59;6.00;;;4.57;;
2624;SDS011;1322;53.256;10.386;2023-04-28T09:47:27;10.47;;;4.80;;
2624;SDS011;1322;53.256;10.386;2023-04-28T09:49:56;5.43;;;4.23;;
2624;SDS011;1322;53.256;10.386;2023-04-28T09:52:23;4.70;;;4.17;;
2624;SDS011;1322;53.256;10.386;2023-04-28T09:54:50;7.33;;;4.97;;
2624;SDS011;1322;53.256;10.386;2023-04-28T09:57:18;12.40;;;6.07;;
2624;SDS011;1322;53.256;10.386;2023-04-28T09:59:46;7.40;;;5.37;;
2624;SDS011;1322;53.256;10.386;2023-04-28T10:02:14;7.00;;;4.43;;
2624;SDS011;1322;53.256;10.386;2023-04-28T10:04:40;8.07;;;4.67;;
2624;SDS011;1322;53.256;10.386;2023-04-28T10:07:10;7.30;;;4.93;;
2624;SDS011;1322;53.256;10.386;2023-04-28T10:09:36;7.30;;;4.47;;
2624;SDS011;1322;53.256;10.386;2023-04-28T10:12:03;6.90;;;4.97;;
2624;SDS011;1322;53.256;10.386;2023-04-28T10:14:30;10.23;;;5.00;;
2624;SDS011;1322;53.256;10.386;2023-04-28T10:16:57;5.47;;;4.50;;
2624;SDS011;1322;53.256;10.386;2023-04-28T10:19:23;6.60;;;5.17;;
2624;SDS011;1322;53.256;10.386;2023-04-28T10:21:56;8.40;;;5.80;;
2624;SDS011;1322;53.256;10.386;2023-04-28T10:24:28;8.60;;;5.73;;
2624;SDS011;1322;53.256;10.386;2023-04-28T10:27:01;9.93;;;5.23;;
2624;SDS011;1322;53.256;10.386;2023-04-28T10:29:32;7.43;;;4.90;;
2624;SDS011;1322;53.256;10.386;2023-04-28T10:32:14;7.20;;;4.80;;
2624;SDS011;1322;53.256;10.386;2023-04-28T10:34:49;6.10;;;5.20;;
2624;SDS011;1322;53.256;10.386;2023-04-28T10:37:16;7.50;;;4.70;;
2624;SDS011;1322;53.256;10.386;2023-04-28T10:42:50;8.90;;;7.00;;
2624;SDS011;1322;53.256;10.386;2023-04-28T10:56:13;5.97;;;5.00;;
2624;SDS011;1322;53.256;10.386;2023-04-28T10:58:41;8.67;;;4.50;;
2624;SDS011;1322;53.256;10.386;2023-04-28T11:01:30;9.60;;;5.00;;
2624;SDS011;1322;53.256;10.386;2023-04-28T11:03:59;10.60;;;6.33;;
2624;SDS011;1322;53.256;10.386;2023-04-28T11:17:06;6.07;;;5.03;;
2624;SDS011;1322;53.256;10.386;2023-04-28T11:19:33;8.10;;;5.00;;
2624;SDS011;1322;53.256;10.386;2023-04-28T11:22:02;10.37;;;6.13;;
2624;SDS011;1322;53.256;10.386;2023-04-28T11:24:33;14.97;;;6.83;;
2624;SDS011;1322;53.256;10.386;2023-04-28T11:26:59;16.23;;;5.77;;
2624;SDS011;1322;53.256;10.386;2023-04-28T11:29:30;12.93;;;6.23;;
2624;SDS011;1322;53.256;10.386;2023-04-28T11:32:01;5.97;;;5.17;;
2624;SDS011;1322;53.256;10.386;2023-04-28T11:34:27;6.33;;;5.40;;
2624;SDS011;1322;53.256;10.386;2023-04-28T11:36:53;11.73;;;4.37;;
2624;SDS011;1322;53.256;10.386;2023-04-28T11:39:29;8.67;;;5.10;;
2624;SDS011;1322;53.256;10.386;2023-04-28T11:41:57;8.80;;;4.90;;
2624;SDS011;1322;53.256;10.386;2023-04-28T11:44:25;8.47;;;4.97;;
2624;SDS011;1322;53.256;10.386;2023-04-28T11:46:53;10.47;;;6.13;;
2624;SDS011;1322;53.256;10.386;2023-04-28T11:49:42;13.93;;;5.60;;
2624;SDS011;1322;53.256;10.386;2023-04-28T11:52:09;9.03;;;5.17;;
2624;SDS011;1322;53.256;10.386;2023-04-28T11:54:35;5.47;;;4.73;;
2624;SDS011;1322;53.256;10.386;2023-04-28T11:57:02;10.07;;;5.37;;
2624;SDS011;1322;53.256;10.386;2023-04-28T11:59:32;7.43;;;5.53;;
2624;SDS011;1322;53.256;10.386;2023-04-28T12:02:03;9.53;;;4.97;;
2624;SDS011;1322;53.256;10.386;2023-04-28T12:09:26;6.67;;;4.37;;
2624;SDS011;1322;53.256;10.386;2023-04-28T12:11:52;7.27;;;4.87;;
2624;SDS011;1322;53.256;10.386;2023-04-28T12:14:18;8.10;;;5.70;;
2624;SDS011;1322;53.256;10.386;2023-04-28T12:16:45;9.97;;;5.67;;
2624;SDS011;1322;53.256;10.386;2023-04-28T12:19:12;7.47;;;6.07;;
2624;SDS011;1322;53.256;10.386;2023-04-28T12:21:40;9.57;;;5.10;;
2624;SDS011;1322;53.256;10.386;2023-04-28T12:24:19;9.57;;;5.20;;
2624;SDS011;1322;53.256;10.386;2023-04-28T12:26:46;7.87;;;5.50;;
2624;SDS011;1322;53.256;10.386;2023-04-28T12:29:54;10.10;;;6.40;;
2624;SDS011;1322;53.256;10.386;2023-04-28T12:32:04;8.67;;;5.23;;
2624;SDS011;1322;53.256;10.386;2023-04-28T12:34:31;8.70;;;7.30;;
2624;SDS011;1322;53.256;10.386;2023-04-28T12:36:58;10.90;;;6.40;;
2624;SDS011;1322;53.256;10.386;2023-04-28T12:39:25;7.87;;;4.93;;
2624;SDS011;1322;53.256;10.386;2023-04-28T12:41:51;13.97;;;6.30;;
2624;SDS011;1322;53.256;10.386;2023-04-28T12:44:19;9.80;;;6.30;;
2624;SDS011;1322;53.256;10.386;2023-04-28T12:46:45;11.73;;;6.30;;
2624;SDS011;1322;53.256;10.386;2023-04-28T12:49:11;11.50;;;5.60;;
2624;SDS011;1322;53.256;10.386;2023-04-28T12:51:39;9.17;;;6.47;;
2624;SDS011;1322;53.256;10.386;2023-04-28T12:54:05;7.83;;;5.70;;
2624;SDS011;1322;53.256;10.386;2023-04-28T12:56:32;14.17;;;7.27;;
2624;SDS011;1322;53.256;10.386;2023-04-28T12:58:58;5.90;;;5.00;;
2624;SDS011;1322;53.256;10.386;2023-04-28T13:01:26;8.60;;;6.57;;
2624;SDS011;1322;53.256;10.386;2023-04-28T13:03:52;11.33;;;6.73;;
2624;SDS011;1322;53.256;10.386;2023-04-28T13:06:18;8.27;;;5.93;;
2624;SDS011;1322;53.256;10.386;2023-04-28T13:08:44;9.90;;;6.07;;
2624;SDS011;1322;53.256;10.386;2023-04-28T13:11:10;12.27;;;6.17;;
2624;SDS011;1322;53.256;10.386;2023-04-28T13:13:37;7.70;;;5.47;;
2624;SDS011;1322;53.256;10.386;2023-04-28T13:16:03;10.73;;;6.50;;
2624;SDS011;1322;53.256;10.386;2023-04-28T13:18:29;10.53;;;7.00;;
2624;SDS011;1322;53.256;10.386;2023-04-28T13:20:56;8.67;;;6.27;;
2624;SDS011;1322;53.256;10.386;2023-04-28T13:23:22;8.87;;;6.50;;
2624;SDS011;1322;53.256;10.386;2023-04-28T13:25:49;11.90;;;7.57;;
2624;SDS011;1322;53.256;10.386;2023-04-28T13:28:15;9.10;;;6.33;;
2624;SDS011;1322;53.256;10.386;2023-04-28T13:30:41;10.40;;;6.90;;
2624;SDS011;1322;53.256;10.386;2023-04-28T13:33:06;7.23;;;6.40;;
2624;SDS011;1322;53.256;10.386;2023-04-28T13:35:32;8.07;;;6.30;;
2624;SDS011;1322;53.256;10.386;2023-04-28T13:37:58;11.23;;;6.03;;
2624;SDS011;1322;53.256;10.386;2023-04-28T13:40:28;10.20;;;6.73;;
2624;SDS011;1322;53.256;10.386;2023-04-28T13:42:54;10.20;;;6.40;;
2624;SDS011;1322;53.256;10.386;2023-04-28T13:45:20;10.60;;;6.90;;
2624;SDS011;1322;53.256;10.386;2023-04-28T13:47:46;9.57;;;6.60;;
2624;SDS011;1322;53.256;10.386;2023-04-28T13:50:13;10.17;;;6.97;;
2624;SDS011;1322;53.256;10.386;2023-04-28T13:52:39;7.70;;;6.40;;
2624;SDS011;1322;53.256;10.386;2023-04-28T13:55:05;10.47;;;6.63;;
2624;SDS011;1322;53.256;10.386;2023-04-28T13:57:31;11.27;;;6.00;;
2624;SDS011;1322;53.256;10.386;2023-04-28T13:59:57;6.77;;;5.20;;
2624;SDS011;1322;53.256;10.386;2023-04-28T14:02:23;9.77;;;6.90;;
2624;SDS011;1322;53.256;10.386;2023-04-28T14:04:51;10.00;;;6.40;;
2624;SDS011;1322;53.256;10.386;2023-04-28T14:07:17;13.43;;;6.00;;
2624;SDS011;1322;53.256;10.386;2023-04-28T14:09:43;8.87;;;6.13;;
2624;SDS011;1322;53.256;10.386;2023-04-28T14:12:09;9.70;;;5.63;;
2624;SDS011;1322;53.256;10.386;2023-04-28T14:14:38;10.63;;;6.00;;
2624;SDS011;1322;53.256;10.386;2023-04-28T14:17:05;10.97;;;6.97;;
2624;SDS011;1322;53.256;10.386;2023-04-28T14:19:30;11.13;;;6.10;;
2624;SDS011;1322;53.256;10.386;2023-04-28T14:21:57;14.60;;;6.27;;
2624;SDS011;1322;53.256;10.386;2023-04-28T14:24:23;8.93;;;5.43;;
2624;SDS011;1322;53.256;10.386;2023-04-28T14:26:49;8.67;;;6.10;;
2624;SDS011;1322;53.256;10.386;2023-04-28T14:29:15;9.40;;;6.07;;
2624;SDS011;1322;53.256;10.386;2023-04-28T14:31:41;8.30;;;5.80;;
2624;SDS011;1322;53.256;10.386;2023-04-28T14:34:07;8.83;;;6.80;;
2624;SDS011;1322;53.256;10.386;2023-04-28T14:36:33;6.70;;;5.97;;
2624;SDS011;1322;53.256;10.386;2023-04-28T14:38:59;11.23;;;7.73;;
2624;SDS011;1322;53.256;10.386;2023-04-28T14:41:25;14.77;;;8.10;;
2624;SDS011;1322;53.256;10.386;2023-04-28T14:43:51;11.13;;;6.33;;
2624;SDS011;1322;53.256;10.386;2023-04-28T14:46:17;10.17;;;6.70;;
2624;SDS011;1322;53.256;10.386;2023-04-28T14:48:46;13.30;;;6.20;;
2624;SDS011;1322;53.256;10.386;2023-04-28T14:51:12;11.27;;;6.53;;
2624;SDS011;1322;53.256;10.386;2023-04-28T14:53:38;9.87;;;5.73;;
2624;SDS011;1322;53.256;10.386;2023-04-28T14:56:05;11.03;;;6.57;;
2624;SDS011;1322;53.256;10.386;2023-04-28T14:58:31;6.93;;;6.23;;
2624;SDS011;1322;53.256;10.386;2023-04-28T15:00:57;13.40;;;7.17;;
2624;SDS011;1322;53.256;10.386;2023-04-28T15:03:23;10.90;;;7.20;;
2624;SDS011;1322;53.256;10.386;2023-04-28T15:05:49;14.33;;;6.90;;
2624;SDS011;1322;53.256;10.386;2023-04-28T15:08:15;11.80;;;6.03;;
2624;SDS011;1322;53.256;10.386;2023-04-28T15:10:41;10.60;;;6.90;;
2624;SDS011;1322;53.256;10.386;2023-04-28T15:13:07;10.00;;;6.53;;
2624;SDS011;1322;53.256;10.386;2023-04-28T15:15:33;10.50;;;6.10;;
2624;SDS011;1322;53.256;10.386;2023-04-28T15:18:00;12.50;;;7.40;;
2624;SDS011;1322;53.256;10.386;2023-04-28T15:20:28;11.77;;;8.30;;
2624;SDS011;1322;53.256;10.386;2023-04-28T15:22:55;12.47;;;7.53;;
2624;SDS011;1322;53.256;10.386;2023-04-28T15:25:21;9.73;;;7.17;;
2624;SDS011;1322;53.256;10.386;2023-04-28T15:27:47;8.87;;;6.00;;
2624;SDS011;1322;53.256;10.386;2023-04-28T15:30:14;12.90;;;8.70;;